sensor_id;sensor_type;location;lat;lon;timestamp;pressure;altitude;pressure_sealevel;temperature;humidity
60170;BME280;46042;49.444;6.862;2023-05-12T00:01:02;98442.56;;;11.38;100.00
60170;BME280;46042;49.444;6.862;2023-05-12T00:03:28;98438.13;;;11.38;100.00
60170;BME280;46042;49.444;6.862;2023-05-12T00:05:55;98435.69;;;11.35;100.00
60170;BME280;46042;49.444;6.862;2023-05-12T00:08:22;98438.47;;;11.34;100.00
60170;BME280;46042;49.444;6.862;2023-05-12T00:10:49;98435.94;;;11.32;100.00
60170;BME280;46042;49.444;6.862;2023-05-12T00:13:15;98435.81;;;11.34;100.00
60170;BME280;46042;49.444;6.862;2023-05-12T00:15:42;98431.16;;;11.37;100.00
60170;BME280;46042;49.444;6.862;2023-05-12T00:18:09;98429.47;;;11.36;100.00
60170;BME280;46042;49.444;6.862;2023-05-12T00:20:37;98429.69;;;11.33;100.00
60170;BME280;46042;49.444;6.862;2023-05-12T00:23:03;98431.38;;;11.34;100.00
60170;BME280;46042;49.444;6.862;2023-05-12T00:25:30;98427.59;;;11.38;100.00
60170;BME280;46042;49.444;6.862;2023-05-12T00:27:57;98423.25;;;11.37;100.00
60170;BME280;46042;49.444;6.862;2023-05-12T00:30:23;98421.69;;;11.35;100.00
60170;BME280;46042;49.444;6.862;2023-05-12T00:32:50;98423.47;;;11.34;100.00
60170;BME280;46042;49.444;6.862;2023-05-12T00:35:17;98420.84;;;11.34;100.00
60170;BME280;46042;49.444;6.862;2023-05-12T00:37:44;98417.47;;;11.32;100.00
60170;BME280;46042;49.444;6.862;2023-05-12T00:40:10;98419.94;;;11.22;100.00
60170;BME280;46042;49.444;6.862;2023-05-12T00:42:37;98426.78;;;11.25;100.00
60170;BME280;46042;49.444;6.862;2023-05-12T00:45:04;98417.38;;;11.21;100.00
60170;BME280;46042;49.444;6.862;2023-05-12T00:47:31;98417.53;;;11.19;100.00
60170;BME280;46042;49.444;6.862;2023-05-12T00:49:58;98412.75;;;11.24;100.00
60170;BME280;46042;49.444;6.862;2023-05-12T00:52:26;98417.38;;;11.34;100.00
60170;BME280;46042;49.444;6.862;2023-05-12T00:54:53;98414.72;;;11.34;100.00
60170;BME280;46042;49.444;6.862;2023-05-12T00:57:21;98412.25;;;11.19;100.00
60170;BME280;46042;49.444;6.862;2023-05-12T00:59:48;98407.06;;;11.18;100.00
60170;BME280;46042;49.444;6.862;2023-05-12T01:02:14;98410.78;;;11.15;100.00
60170;BME280;46042;49.444;6.862;2023-05-12T01:04:41;98406.91;;;11.08;100.00
60170;BME280;46042;49.444;6.862;2023-05-12T01:07:29;98406.06;;;11.07;100.00
60170;BME280;46042;49.444;6.862;2023-05-12T01:09:57;98404.50;;;11.05;100.00
60170;BME280;46042;49.444;6.862;2023-05-12T01:12:25;98405.22;;;11.07;100.00
60170;BME280;46042;49.444;6.862;2023-05-12T01:14:54;98396.47;;;11.06;100.00
60170;BME280;46042;49.444;6.862;2023-05-12T01:17:30;98399.53;;;11.13;100.00
60170;BME280;46042;49.444;6.862;2023-05-12T01:20:03;98391.63;;;11.13;100.00
60170;BME280;46042;49.444;6.862;2023-05-12T01:22:32;98395.31;;;11.35;100.00
60170;BME280;46042;49.444;6.862;2023-05-12T01:25:04;98398.75;;;11.11;100.00
60170;BME280;46042;49.444;6.862;2023-05-12T01:27:33;98394.56;;;11.08;100.00
60170;BME280;46042;49.444;6.862;2023-05-12T01:30:01;98394.66;;;11.07;100.00
60170;BME280;46042;49.444;6.862;2023-05-12T01:32:28;98396.69;;;11.03;100.00
60170;BME280;46042;49.444;6.862;2023-05-12T01:34:56;98394.81;;;11.05;100.00
60170;BME280;46042;49.444;6.862;2023-05-12T01:37:22;98393.13;;;11.04;100.00
60170;BME280;46042;49.444;6.862;2023-05-12T01:39:52;98390.47;;;11.04;100.00
60170;BME280;46042;49.444;6.862;2023-05-12T01:42:19;98390.47;;;11.04;100.00
60170;BME280;46042;49.444;6.862;2023-05-12T01:44:45;98390.59;;;11.03;100.00
60170;BME280;46042;49.444;6.862;2023-05-12T01:47:12;98389.34;;;11.20;100.00
60170;BME280;46042;49.444;6.862;2023-05-12T01:49:41;98389.84;;;11.01;100.00
60170;BME280;46042;49.444;6.862;2023-05-12T01:52:08;98388.16;;;11.00;100.00
60170;BME280;46042;49.444;6.862;2023-05-12T01:54:34;98383.63;;;11.02;100.00
60170;BME280;46042;49.444;6.862;2023-05-12T01:57:02;98381.81;;;11.02;100.00
60170;BME280;46042;49.444;6.862;2023-05-12T01:59:29;98389.84;;;11.01;100.00
60170;BME280;46042;49.444;6.862;2023-05-12T02:01:56;98386.50;;;10.99;100.00
60170;BME280;46042;49.444;6.862;2023-05-12T02:04:22;98385.63;;;10.98;100.00
60170;BME280;46042;49.444;6.862;2023-05-12T02:06:49;98384.06;;;10.95;100.00
60170;BME280;46042;49.444;6.862;2023-05-12T02:09:17;98388.41;;;10.97;100.00
60170;BME280;46042;49.444;6.862;2023-05-12T02:11:44;98390.28;;;10.94;100.00
60170;BME280;46042;49.444;6.862;2023-05-12T02:14:10;98399.88;;;10.95;100.00
60170;BME280;46042;49.444;6.862;2023-05-12T02:16:37;98392.09;;;10.94;100.00
60170;BME280;46042;49.444;6.862;2023-05-12T02:19:03;98399.03;;;10.95;100.00
60170;BME280;46042;49.444;6.862;2023-05-12T02:21:30;98394.72;;;10.94;100.00
60170;BME280;46042;49.444;6.862;2023-05-12T02:23:58;98381.53;;;10.94;100.00
60170;BME280;46042;49.444;6.862;2023-05-12T02:26:24;98390.63;;;10.90;100.00
60170;BME280;46042;49.444;6.862;2023-05-12T02:28:51;98382.59;;;10.91;100.00
60170;BME280;46042;49.444;6.862;2023-05-12T02:31:17;98391.34;;;10.92;100.00
60170;BME280;46042;49.444;6.862;2023-05-12T02:33:44;98387.75;;;10.93;100.00
60170;BME280;46042;49.444;6.862;2023-05-12T02:36:11;98384.91;;;10.96;100.00
60170;BME280;46042;49.444;6.862;2023-05-12T02:38:37;98384.91;;;10.96;100.00
60170;BME280;46042;49.444;6.862;2023-05-12T02:41:05;98384.06;;;10.95;100.00
60170;BME280;46042;49.444;6.862;2023-05-12T02:43:33;98383.13;;;10.97;100.00
60170;BME280;46042;49.444;6.862;2023-05-12T02:45:59;98383.84;;;10.99;100.00
60170;BME280;46042;49.444;6.862;2023-05-12T02:48:26;98384.81;;;10.98;100.00
60170;BME280;46042;49.444;6.862;2023-05-12T02:50:52;98382.16;;;10.98;100.00
60170;BME280;46042;49.444;6.862;2023-05-12T02:53:19;98378.59;;;10.99;100.00
60170;BME280;46042;49.444;6.862;2023-05-12T02:55:46;98383.84;;;10.99;100.00
60170;BME280;46042;49.444;6.862;2023-05-12T02:58:12;98382.16;;;10.98;100.00
60170;BME280;46042;49.444;6.862;2023-05-12T03:00:39;98384.06;;;10.95;100.00
60170;BME280;46042;49.444;6.862;2023-05-12T03:03:06;98384.69;;;10.99;100.00
60170;BME280;46042;49.444;6.862;2023-05-12T03:05:33;98382.03;;;10.99;100.00
60170;BME280;46042;49.444;6.862;2023-05-12T03:07:59;98378.59;;;10.99;100.00
60170;BME280;46042;49.444;6.862;2023-05-12T03:10:26;98380.34;;;10.98;100.00
60170;BME280;46042;49.444;6.862;2023-05-12T03:12:53;98380.25;;;11.00;100.00
60170;BME280;46042;49.444;6.862;2023-05-12T03:15:19;98377.63;;;11.00;100.00
60170;BME280;46042;49.444;6.862;2023-05-12T03:17:46;98377.63;;;11.00;100.00
60170;BME280;46042;49.444;6.862;2023-05-12T03:20:13;98367.09;;;11.00;100.00
60170;BME280;46042;49.444;6.862;2023-05-12T03:22:39;98372.34;;;11.00;100.00
60170;BME280;46042;49.444;6.862;2023-05-12T03:25:08;98376.91;;;10.98;100.00
60170;BME280;46042;49.444;6.862;2023-05-12T03:27:35;98375.22;;;10.97;100.00
60170;BME280;46042;49.444;6.862;2023-05-12T03:30:02;98368.22;;;10.95;100.00
60170;BME280;46042;49.444;6.862;2023-05-12T03:32:31;98371.72;;;10.96;100.00
60170;BME280;46042;49.444;6.862;2023-05-12T03:34:57;98371.63;;;10.98;100.00
60170;BME280;46042;49.444;6.862;2023-05-12T03:37:24;98371.72;;;10.96;100.00
60170;BME280;46042;49.444;6.862;2023-05-12T03:39:50;98367.09;;;11.00;100.00
60170;BME280;46042;49.444;6.862;2023-05-12T03:42:21;98362.88;;;10.97;100.00
60170;BME280;46042;49.444;6.862;2023-05-12T03:44:52;98374.25;;;10.98;100.00
60170;BME280;46042;49.444;6.862;2023-05-12T03:47:19;98366.56;;;10.94;100.00
60170;BME280;46042;49.444;6.862;2023-05-12T03:49:45;98365.72;;;10.94;100.00
60170;BME280;46042;49.444;6.862;2023-05-12T03:52:12;98365.22;;;10.89;100.00
60170;BME280;46042;49.444;6.862;2023-05-12T03:54:39;98364.38;;;10.88;100.00
60170;BME280;46042;49.444;6.862;2023-05-12T03:57:06;98363.53;;;10.88;100.00
60170;BME280;46042;49.444;6.862;2023-05-12T03:59:33;98354.78;;;10.87;100.00
60170;BME280;46042;49.444;6.862;2023-05-12T04:02:00;98356.38;;;10.90;100.00
60170;BME280;46042;49.444;6.862;2023-05-12T04:04:27;98351.91;;;10.90;100.00
60170;BME280;46042;49.444;6.862;2023-05-12T04:06:53;98359.00;;;10.90;100.00
60170;BME280;46042;49.444;6.862;2023-05-12T04:09:20;98360.69;;;10.91;100.00
60170;BME280;46042;49.444;6.862;2023-05-12T04:11:47;98353.72;;;10.90;100.00
60170;BME280;46042;49.444;6.862;2023-05-12T04:14:13;98357.31;;;10.89;100.00
60170;BME280;46042;49.444;6.862;2023-05-12T04:16:40;98357.91;;;10.92;100.00
60170;BME280;46042;49.444;6.862;2023-05-12T04:19:07;98357.81;;;10.94;100.00
60170;BME280;46042;49.444;6.862;2023-05-12T04:21:34;98360.56;;;10.92;100.00
60170;BME280;46042;49.444;6.862;2023-05-12T04:24:00;98358.78;;;10.93;100.00
60170;BME280;46042;49.444;6.862;2023-05-12T04:26:27;98359.59;;;10.93;100.00
60170;BME280;46042;49.444;6.862;2023-05-12T04:28:54;98355.50;;;10.89;100.00
60170;BME280;46042;49.444;6.862;2023-05-12T04:31:20;98367.97;;;10.87;100.00
60170;BME280;46042;49.444;6.862;2023-05-12T04:33:47;98365.31;;;10.87;100.00
60170;BME280;46042;49.444;6.862;2023-05-12T04:36:14;98362.47;;;10.90;100.00
60170;BME280;46042;49.444;6.862;2023-05-12T04:38:41;98362.13;;;10.95;100.00
60170;BME280;46042;49.444;6.862;2023-05-12T04:41:07;98365.19;;;11.02;100.00
60170;BME280;46042;49.444;6.862;2023-05-12T04:43:34;98358.22;;;11.01;100.00
60170;BME280;46042;49.444;6.862;2023-05-12T04:46:04;98360.06;;;11.12;100.00
60170;BME280;46042;49.444;6.862;2023-05-12T04:48:31;98357.34;;;11.13;100.00
60170;BME280;46042;49.444;6.862;2023-05-12T04:50:58;98363.53;;;11.12;100.00
60170;BME280;46042;49.444;6.862;2023-05-12T04:53:28;98374.75;;;11.03;100.00
60170;BME280;46042;49.444;6.862;2023-05-12T04:55:59;98374.03;;;11.01;100.00
60170;BME280;46042;49.444;6.862;2023-05-12T04:58:27;98375.94;;;10.99;100.00
60170;BME280;46042;49.444;6.862;2023-05-12T05:00:53;98375.81;;;11.00;100.00
60170;BME280;46042;49.444;6.862;2023-05-12T05:03:20;98377.41;;;11.03;100.00
60170;BME280;46042;49.444;6.862;2023-05-12T05:05:47;98386.25;;;11.02;100.00
60170;BME280;46042;49.444;6.862;2023-05-12T05:08:14;98380.03;;;11.03;100.00
60170;BME280;46042;49.444;6.862;2023-05-12T05:10:41;98376.34;;;11.05;100.00
60170;BME280;46042;49.444;6.862;2023-05-12T05:13:07;98390.84;;;11.11;100.00
60170;BME280;46042;49.444;6.862;2023-05-12T05:15:34;98385.38;;;11.14;100.00
60170;BME280;46042;49.444;6.862;2023-05-12T05:18:01;98391.25;;;11.18;100.00
60170;BME280;46042;49.444;6.862;2023-05-12T05:20:27;98398.13;;;11.20;100.00
60170;BME280;46042;49.444;6.862;2023-05-12T05:22:54;98395.38;;;11.22;100.00
60170;BME280;46042;49.444;6.862;2023-05-12T05:25:21;98396.19;;;11.22;100.00
60170;BME280;46042;49.444;6.862;2023-05-12T05:27:48;98393.34;;;11.26;100.00
60170;BME280;46042;49.444;6.862;2023-05-12T05:30:15;98388.19;;;11.24;100.00
60170;BME280;46042;49.444;6.862;2023-05-12T05:32:42;98400.91;;;11.30;100.00
60170;BME280;46042;49.444;6.862;2023-05-12T05:35:09;98400.28;;;11.51;100.00
60170;BME280;46042;49.444;6.862;2023-05-12T05:37:36;98405.63;;;11.38;100.00
60170;BME280;46042;49.444;6.862;2023-05-12T05:40:03;98401.31;;;11.37;100.00
60170;BME280;46042;49.444;6.862;2023-05-12T05:42:30;98398.69;;;11.37;100.00
60170;BME280;46042;49.444;6.862;2023-05-12T05:44:57;98411.41;;;11.43;100.00
60170;BME280;46042;49.444;6.862;2023-05-12T05:47:23;98408.78;;;11.43;100.00
60170;BME280;46042;49.444;6.862;2023-05-12T05:49:50;98408.53;;;11.46;100.00
60170;BME280;46042;49.444;6.862;2023-05-12T05:52:17;98408.09;;;11.52;100.00
60170;BME280;46042;49.444;6.862;2023-05-12T05:54:44;98404.28;;;11.57;100.00
60170;BME280;46042;49.444;6.862;2023-05-12T05:57:11;98407.63;;;11.59;100.00
60170;BME280;46042;49.444;6.862;2023-05-12T05:59:37;98410.03;;;11.62;100.00
60170;BME280;46042;49.444;6.862;2023-05-12T06:02:04;98406.81;;;11.58;100.00
60170;BME280;46042;49.444;6.862;2023-05-12T06:04:31;98406.84;;;11.70;100.00
60170;BME280;46042;49.444;6.862;2023-05-12T06:06:58;98412.50;;;11.76;100.00
60170;BME280;46042;49.444;6.862;2023-05-12T06:09:24;98416.38;;;11.84;100.00
60170;BME280;46042;49.444;6.862;2023-05-12T06:11:51;98414.22;;;11.89;100.00
60170;BME280;46042;49.444;6.862;2023-05-12T06:14:17;98420.13;;;11.92;100.00
60170;BME280;46042;49.444;6.862;2023-05-12T06:16:44;98419.28;;;11.92;100.00
60170;BME280;46042;49.444;6.862;2023-05-12T06:19:11;98417.88;;;11.99;100.00
60170;BME280;46042;49.444;6.862;2023-05-12T06:21:38;98427.38;;;12.02;100.00
60170;BME280;46042;49.444;6.862;2023-05-12T06:24:04;98428.72;;;12.07;100.00
60170;BME280;46042;49.444;6.862;2023-05-12T06:26:31;98434.47;;;12.13;100.00
60170;BME280;46042;49.444;6.862;2023-05-12T06:28:58;98422.00;;;12.15;100.00
60170;BME280;46042;49.444;6.862;2023-05-12T06:31:25;98427.91;;;12.18;100.00
60170;BME280;46042;49.444;6.862;2023-05-12T06:33:51;98426.94;;;12.19;100.00
60170;BME280;46042;49.444;6.862;2023-05-12T06:36:18;98422.88;;;12.27;100.00
60170;BME280;46042;49.444;6.862;2023-05-12T06:38:45;98421.94;;;12.28;100.00
60170;BME280;46042;49.444;6.862;2023-05-12T06:41:11;98422.75;;;12.28;100.00
60170;BME280;46042;49.444;6.862;2023-05-12T06:43:38;98441.97;;;12.30;100.00
60170;BME280;46042;49.444;6.862;2023-05-12T06:46:05;98433.44;;;12.27;100.00
60170;BME280;46042;49.444;6.862;2023-05-12T06:48:32;98436.81;;;12.29;100.00
60170;BME280;46042;49.444;6.862;2023-05-12T06:50:59;98438.59;;;12.28;100.00
60170;BME280;46042;49.444;6.862;2023-05-12T06:53:25;98436.69;;;12.30;100.00
60170;BME280;46042;49.444;6.862;2023-05-12T06:55:52;98434.41;;;12.37;100.00
60170;BME280;46042;49.444;6.862;2023-05-12T06:58:20;98432.47;;;12.39;100.00
60170;BME280;46042;49.444;6.862;2023-05-12T07:00:47;98436.94;;;12.38;100.00
60170;BME280;46042;49.444;6.862;2023-05-12T07:03:14;98437.41;;;12.44;100.00
60170;BME280;46042;49.444;6.862;2023-05-12T07:05:41;98437.19;;;12.47;100.00
60170;BME280;46042;49.444;6.862;2023-05-12T07:08:08;98434.09;;;12.53;100.00
60170;BME280;46042;49.444;6.862;2023-05-12T07:10:34;98435.38;;;12.47;100.00
60170;BME280;46042;49.444;6.862;2023-05-12T07:13:01;98431.69;;;12.50;100.00
60170;BME280;46042;49.444;6.862;2023-05-12T07:15:28;98444.91;;;12.50;100.00
60170;BME280;46042;49.444;6.862;2023-05-12T07:17:58;98442.47;;;12.47;100.00
60170;BME280;46042;49.444;6.862;2023-05-12T07:20:24;98446.56;;;12.51;100.00
60170;BME280;46042;49.444;6.862;2023-05-12T07:22:51;98446.69;;;12.49;100.00
60170;BME280;46042;49.444;6.862;2023-05-12T07:25:20;98442.00;;;12.53;100.00
60170;BME280;46042;49.444;6.862;2023-05-12T07:27:47;98445.13;;;12.58;100.00
60170;BME280;46042;49.444;6.862;2023-05-12T07:30:15;98446.22;;;12.67;100.00
60170;BME280;46042;49.444;6.862;2023-05-12T07:32:42;98446.81;;;12.71;100.00
60170;BME280;46042;49.444;6.862;2023-05-12T07:35:09;98443.09;;;12.85;100.00
60170;BME280;46042;49.444;6.862;2023-05-12T07:37:36;98442.25;;;12.95;100.00
60170;BME280;46042;49.444;6.862;2023-05-12T07:40:03;98435.28;;;13.06;100.00
60170;BME280;46042;49.444;6.862;2023-05-12T07:42:30;98439.13;;;13.02;100.00
60170;BME280;46042;49.444;6.862;2023-05-12T07:44:56;98440.75;;;13.26;100.00
60170;BME280;46042;49.444;6.862;2023-05-12T07:47:23;98443.25;;;13.50;100.00
60170;BME280;46042;49.444;6.862;2023-05-12T07:49:50;98444.44;;;13.57;100.00
60170;BME280;46042;49.444;6.862;2023-05-12T07:52:16;98437.50;;;13.33;100.00
60170;BME280;46042;49.444;6.862;2023-05-12T07:54:43;98440.50;;;13.40;100.00
60170;BME280;46042;49.444;6.862;2023-05-12T07:57:10;98439.22;;;13.12;100.00
60170;BME280;46042;49.444;6.862;2023-05-12T07:59:36;98438.63;;;13.19;100.00
60170;BME280;46042;49.444;6.862;2023-05-12T08:02:03;98439.88;;;13.36;100.00
60170;BME280;46042;49.444;6.862;2023-05-12T08:04:30;98441.50;;;13.72;100.00
60170;BME280;46042;49.444;6.862;2023-05-12T08:06:57;98449.06;;;13.76;100.00
60170;BME280;46042;49.444;6.862;2023-05-12T08:09:23;98441.72;;;14.01;100.00
60170;BME280;46042;49.444;6.862;2023-05-12T08:11:50;98444.91;;;14.16;100.00
60170;BME280;46042;49.444;6.862;2023-05-12T08:14:17;98440.44;;;14.38;100.00
60170;BME280;46042;49.444;6.862;2023-05-12T08:16:44;98451.63;;;14.42;100.00
60170;BME280;46042;49.444;6.862;2023-05-12T08:19:12;98446.97;;;14.13;100.00
60170;BME280;46042;49.444;6.862;2023-05-12T08:21:39;98446.22;;;14.22;100.00
60170;BME280;46042;49.444;6.862;2023-05-12T08:24:05;98458.88;;;14.18;100.00
60170;BME280;46042;49.444;6.862;2023-05-12T08:26:32;98453.50;;;14.30;100.00
60170;BME280;46042;49.444;6.862;2023-05-12T08:28:59;98452.78;;;14.49;100.00
60170;BME280;46042;49.444;6.862;2023-05-12T08:31:27;98458.88;;;14.40;100.00
60170;BME280;46042;49.444;6.862;2023-05-12T08:33:54;98445.25;;;14.54;100.00
60170;BME280;46042;49.444;6.862;2023-05-12T08:36:35;98461.75;;;14.58;100.00
60170;BME280;46042;49.444;6.862;2023-05-12T08:39:02;98454.53;;;14.70;100.00
60170;BME280;46042;49.444;6.862;2023-05-12T08:41:47;98454.00;;;14.66;100.00
60170;BME280;46042;49.444;6.862;2023-05-12T08:44:18;98447.91;;;14.75;100.00
60170;BME280;46042;49.444;6.862;2023-05-12T08:46:45;98457.84;;;14.62;100.00
60170;BME280;46042;49.444;6.862;2023-05-12T08:49:16;98457.09;;;14.50;100.00
60170;BME280;46042;49.444;6.862;2023-05-12T08:51:43;98464.56;;;14.35;98.98
60170;BME280;46042;49.444;6.862;2023-05-12T08:54:22;98455.47;;;14.37;100.00
60170;BME280;46042;49.444;6.862;2023-05-12T08:56:50;98453.91;;;14.77;100.00
60170;BME280;46042;49.444;6.862;2023-05-12T08:59:22;98455.63;;;14.88;100.00
60170;BME280;46042;49.444;6.862;2023-05-12T09:01:49;98466.31;;;14.98;100.00
60170;BME280;46042;49.444;6.862;2023-05-12T09:04:16;98459.28;;;14.97;100.00
60170;BME280;46042;49.444;6.862;2023-05-12T09:06:44;98459.53;;;14.84;98.71
60170;BME280;46042;49.444;6.862;2023-05-12T09:09:12;98458.41;;;14.77;97.19
60170;BME280;46042;49.444;6.862;2023-05-12T09:11:41;98461.94;;;14.97;100.00
60170;BME280;46042;49.444;6.862;2023-05-12T09:14:13;98457.84;;;14.83;100.00
60170;BME280;46042;49.444;6.862;2023-05-12T09:16:44;98458.66;;;14.74;100.00
60170;BME280;46042;49.444;6.862;2023-05-12T09:19:12;98460.81;;;14.69;100.00
60170;BME280;46042;49.444;6.862;2023-05-12T09:21:38;98455.59;;;14.78;100.00
60170;BME280;46042;49.444;6.862;2023-05-12T09:24:07;98455.38;;;14.91;100.00
60170;BME280;46042;49.444;6.862;2023-05-12T09:26:52;98463.03;;;15.26;99.86
60170;BME280;46042;49.444;6.862;2023-05-12T09:29:19;98457.22;;;15.52;97.80
60170;BME280;46042;49.444;6.862;2023-05-12T09:31:59;98456.09;;;15.54;97.27
60170;BME280;46042;49.444;6.862;2023-05-12T09:37:00;98453.09;;;15.18;96.36
60170;BME280;46042;49.444;6.862;2023-05-12T09:39:27;98453.84;;;15.40;100.00
60170;BME280;46042;49.444;6.862;2023-05-12T09:41:54;98451.38;;;15.58;99.98
60170;BME280;46042;49.444;6.862;2023-05-12T09:44:22;98449.84;;;15.95;100.00
60170;BME280;46042;49.444;6.862;2023-05-12T09:46:49;98459.34;;;16.17;94.60
60170;BME280;46042;49.444;6.862;2023-05-12T09:49:20;98457.13;;;15.92;87.92
60170;BME280;46042;49.444;6.862;2023-05-12T09:52:05;98454.19;;;15.96;87.89
60170;BME280;46042;49.444;6.862;2023-05-12T09:54:32;98450.94;;;15.82;89.66
60170;BME280;46042;49.444;6.862;2023-05-12T09:57:02;98461.03;;;15.78;90.48
60170;BME280;46042;49.444;6.862;2023-05-12T09:59:32;98457.75;;;16.54;100.00
60170;BME280;46042;49.444;6.862;2023-05-12T10:02:01;98452.41;;;17.01;96.55
60170;BME280;46042;49.444;6.862;2023-05-12T10:04:31;98458.81;;;16.71;89.34
60170;BME280;46042;49.444;6.862;2023-05-12T10:06:58;98453.88;;;16.76;93.99
60170;BME280;46042;49.444;6.862;2023-05-12T10:09:30;98448.47;;;17.33;97.64
60170;BME280;46042;49.444;6.862;2023-05-12T10:11:59;98455.03;;;17.11;85.92
60170;BME280;46042;49.444;6.862;2023-05-12T10:14:28;98453.13;;;17.68;90.83
60170;BME280;46042;49.444;6.862;2023-05-12T10:16:55;98452.72;;;18.35;88.85
60170;BME280;46042;49.444;6.862;2023-05-12T10:19:24;98455.25;;;18.63;81.19
60170;BME280;46042;49.444;6.862;2023-05-12T10:21:52;98443.16;;;18.51;77.44
60170;BME280;46042;49.444;6.862;2023-05-12T10:24:26;98456.03;;;18.55;92.90
60170;BME280;46042;49.444;6.862;2023-05-12T10:26:53;98455.94;;;18.39;81.05
60170;BME280;46042;49.444;6.862;2023-05-12T10:29:25;98450.03;;;18.09;78.56
60170;BME280;46042;49.444;6.862;2023-05-12T10:31:56;98466.28;;;17.33;75.78
60170;BME280;46042;49.444;6.862;2023-05-12T10:34:29;98453.44;;;17.65;86.76
60170;BME280;46042;49.444;6.862;2023-05-12T10:36:57;98449.81;;;17.84;81.02
60170;BME280;46042;49.444;6.862;2023-05-12T10:39:31;98453.66;;;17.35;73.77
60170;BME280;46042;49.444;6.862;2023-05-12T10:42:08;98460.53;;;17.28;75.46
60170;BME280;46042;49.444;6.862;2023-05-12T10:44:35;98446.91;;;17.41;75.41
60170;BME280;46042;49.444;6.862;2023-05-12T10:47:13;98442.41;;;17.77;83.61
60170;BME280;46042;49.444;6.862;2023-05-12T10:49:42;98439.75;;;18.14;88.74
60170;BME280;46042;49.444;6.862;2023-05-12T10:52:18;98443.91;;;18.34;82.05
60170;BME280;46042;49.444;6.862;2023-05-12T10:54:46;98449.66;;;18.48;80.12
60170;BME280;46042;49.444;6.862;2023-05-12T10:57:15;98447.19;;;18.55;82.72
60170;BME280;46042;49.444;6.862;2023-05-12T11:00:03;98451.31;;;17.86;79.62
60170;BME280;46042;49.444;6.862;2023-05-12T11:02:30;98452.72;;;17.26;81.34
60170;BME280;46042;49.444;6.862;2023-05-12T11:05:02;98453.72;;;16.87;84.39
60170;BME280;46042;49.444;6.862;2023-05-12T11:07:32;98459.13;;;16.58;88.08
60170;BME280;46042;49.444;6.862;2023-05-12T11:10:02;98452.81;;;16.69;90.49
60170;BME280;46042;49.444;6.862;2023-05-12T11:12:32;98452.28;;;17.03;92.98
60170;BME280;46042;49.444;6.862;2023-05-12T11:15:03;98449.56;;;17.41;93.43
60170;BME280;46042;49.444;6.862;2023-05-12T11:17:30;98444.69;;;18.27;96.33
60170;BME280;46042;49.444;6.862;2023-05-12T11:19:57;98448.63;;;18.23;81.14
60170;BME280;46042;49.444;6.862;2023-05-12T11:22:26;98448.59;;;18.41;80.35
60170;BME280;46042;49.444;6.862;2023-05-12T11:24:53;98455.06;;;18.65;75.10
60170;BME280;46042;49.444;6.862;2023-05-12T11:27:21;98447.66;;;18.76;78.17
60170;BME280;46042;49.444;6.862;2023-05-12T11:29:57;98446.53;;;20.15;94.68
60170;BME280;46042;49.444;6.862;2023-05-12T11:32:24;98440.34;;;20.23;74.72
60170;BME280;46042;49.444;6.862;2023-05-12T11:34:52;98435.75;;;19.40;65.42
60170;BME280;46042;49.444;6.862;2023-05-12T11:37:18;98440.72;;;19.18;75.79
60170;BME280;46042;49.444;6.862;2023-05-12T11:39:47;98447.72;;;18.58;68.94
60170;BME280;46042;49.444;6.862;2023-05-12T11:42:13;98444.63;;;18.45;71.91
60170;BME280;46042;49.444;6.862;2023-05-12T11:44:49;98443.09;;;17.98;70.32
60170;BME280;46042;49.444;6.862;2023-05-12T11:47:18;98444.16;;;18.23;82.68
60170;BME280;46042;49.444;6.862;2023-05-12T11:49:49;98446.88;;;18.31;74.96
60170;BME280;46042;49.444;6.862;2023-05-12T11:52:18;98451.31;;;17.86;81.59
60170;BME280;46042;49.444;6.862;2023-05-12T11:54:50;98457.56;;;17.95;84.88
60170;BME280;46042;49.444;6.862;2023-05-12T11:57:25;98466.16;;;17.71;84.04
60170;BME280;46042;49.444;6.862;2023-05-12T11:59:59;98466.75;;;17.46;86.53
60170;BME280;46042;49.444;6.862;2023-05-12T12:02:27;98468.94;;;17.33;85.83
60170;BME280;46042;49.444;6.862;2023-05-12T12:04:54;98467.53;;;17.29;89.89
60170;BME280;46042;49.444;6.862;2023-05-12T12:07:31;98474.44;;;17.22;90.98
60170;BME280;46042;49.444;6.862;2023-05-12T12:10:16;98476.78;;;17.06;90.12
60170;BME280;46042;49.444;6.862;2023-05-12T12:12:44;98471.72;;;17.13;94.61
60170;BME280;46042;49.444;6.862;2023-05-12T12:15:11;98476.03;;;17.14;92.94
60170;BME280;46042;49.444;6.862;2023-05-12T12:17:38;98478.78;;;17.23;92.71
60170;BME280;46042;49.444;6.862;2023-05-12T12:20:06;98480.16;;;17.27;90.57
60170;BME280;46042;49.444;6.862;2023-05-12T12:22:34;98476.75;;;17.34;92.94
60170;BME280;46042;49.444;6.862;2023-05-12T12:25:01;98483.28;;;17.22;91.16
60170;BME280;46042;49.444;6.862;2023-05-12T12:27:29;98480.72;;;17.30;89.01
60170;BME280;46042;49.444;6.862;2023-05-12T12:29:56;98481.09;;;17.35;88.24
60170;BME280;46042;49.444;6.862;2023-05-12T12:32:23;98477.31;;;17.38;87.77
60170;BME280;46042;49.444;6.862;2023-05-12T12:34:50;98475.44;;;17.48;87.19
60170;BME280;46042;49.444;6.862;2023-05-12T12:37:17;98479.47;;;17.53;82.69
60170;BME280;46042;49.444;6.862;2023-05-12T12:39:44;98479.09;;;17.19;86.19
60170;BME280;46042;49.444;6.862;2023-05-12T12:42:13;98490.09;;;16.97;82.21
60170;BME280;46042;49.444;6.862;2023-05-12T12:44:41;98485.03;;;16.93;86.69
60170;BME280;46042;49.444;6.862;2023-05-12T12:47:08;98489.94;;;16.98;88.50
60170;BME280;46042;49.444;6.862;2023-05-12T12:49:35;98499.09;;;16.76;83.09
60170;BME280;46042;49.444;6.862;2023-05-12T12:52:01;98498.34;;;16.46;83.09
60170;BME280;46042;49.444;6.862;2023-05-12T12:54:28;98496.69;;;16.25;82.45
60170;BME280;46042;49.444;6.862;2023-05-12T12:56:54;98501.16;;;15.85;82.52
60170;BME280;46042;49.444;6.862;2023-05-12T12:59:22;98498.47;;;15.75;88.83